Time;durP1;ratioP1;P1;durP2;ratioP2;P2;SDS_P1;SDS_P2;PMS_P1;PMS_P2;Temp;Humidity;BMP_temperature;BMP_pressure;BME280_temperature;BME280_humidity;BME280_pressure;Samples;Min_cycle;Max_cycle;Signal;HPM_P1;HPM_P2
2023/01/21 00:00:00;;;;;;;45.30;23.83;;;0.00;99.90;;;;;;5093088;28;20057;-73
2023/01/21 00:02:26;;;;;;;41.83;23.30;;;-0.10;99.90;;;;;;5113776;28;20050;-73
2023/01/21 00:04:51;;;;;;;41.42;23.50;;;0.00;99.90;;;;;;5101908;28;20068;-73
2023/01/21 00:07:17;;;;;;;42.72;23.25;;;-0.10;99.90;;;;;;5091126;28;20090;-73
2023/01/21 00:09:43;;;;;;;41.83;24.33;;;-0.10;99.90;;;;;;5099914;28;20118;-73
2023/01/21 00:12:09;;;;;;;42.28;23.42;;;-0.10;99.90;;;;;;5091874;28;20454;-73
2023/01/21 00:14:34;;;;;;;41.53;22.92;;;-0.10;99.90;;;;;;5095514;28;20032;-73
2023/01/21 00:17:00;;;;;;;43.97;24.23;;;-0.10;99.90;;;;;;5089930;28;20449;-73
2023/01/21 00:19:27;;;;;;;42.00;22.80;;;-0.10;99.90;;;;;;5091030;28;20126;-73
2023/01/21 00:21:52;;;;;;;42.38;22.88;;;-0.10;99.90;;;;;;5100902;28;20040;-73
2023/01/21 00:24:19;;;;;;;43.97;23.90;;;-0.10;99.90;;;;;;5091501;28;20039;-72
2023/01/21 00:26:45;;;;;;;39.47;22.00;;;-0.10;99.90;;;;;;5106431;28;20050;-73
2023/01/21 00:29:11;;;;;;;44.45;22.45;;;-0.10;99.90;;;;;;5097047;28;20390;-73
2023/01/21 00:31:36;;;;;;;44.90;22.75;;;-0.10;99.90;;;;;;5092059;28;20515;-73
2023/01/21 00:34:02;;;;;;;42.08;21.60;;;-0.10;99.90;;;;;;5096422;28;20410;-73
2023/01/21 00:36:28;;;;;;;45.50;24.35;;;-0.20;99.90;;;;;;5104097;28;20478;-73
2023/01/21 00:38:55;;;;;;;44.15;23.92;;;-0.20;99.90;;;;;;5105709;28;20436;-74
2023/01/21 00:41:23;;;;;;;42.25;23.23;;;-0.20;99.90;;;;;;5089874;28;20048;-73
2023/01/21 00:43:49;;;;;;;;;;;-0.20;99.90;;;;;;5091722;28;20036;-73
2023/01/21 00:46:15;;;;;;;44.53;22.27;;;-0.10;99.90;;;;;;5094681;28;19932;-74
2023/01/21 00:48:40;;;;;;;46.50;23.77;;;-0.20;99.90;;;;;;5104847;28;20176;-73
2023/01/21 00:51:07;;;;;;;49.08;24.58;;;-0.10;99.90;;;;;;5090452;28;20048;-73
2023/01/21 00:53:34;;;;;;;46.55;25.30;;;-0.20;99.90;;;;;;5098530;28;20040;-73
2023/01/21 00:56:01;;;;;;;46.13;24.80;;;-0.10;99.90;;;;;;5105824;28;20513;-74
2023/01/21 00:58:28;;;;;;;44.95;23.77;;;-0.20;99.90;;;;;;5110342;28;20444;-73
2023/01/21 01:01:01;;;;;;;45.72;24.13;;;-0.20;99.90;;;;;;5090603;28;20126;-73
2023/01/21 01:03:27;;;;;;;49.65;25.52;;;-0.20;99.90;;;;;;5089452;28;20068;-73
2023/01/21 01:05:53;;;;;;;47.08;25.20;;;-0.10;99.90;;;;;;5099705;28;20071;-73
2023/01/21 01:08:19;;;;;;;49.95;25.63;;;-0.10;99.90;;;;;;5090151;28;20040;-73
2023/01/21 01:10:44;;;;;;;49.45;25.77;;;-0.20;99.90;;;;;;5089803;28;20500;-73
2023/01/21 01:13:10;;;;;;;45.50;24.65;;;-0.20;99.90;;;;;;5096173;28;20055;-73
2023/01/21 01:15:35;;;;;;;46.50;24.63;;;-0.20;99.90;;;;;;5106292;28;20027;-73
2023/01/21 01:18:01;;;;;;;42.90;23.95;;;-0.20;99.90;;;;;;5099128;28;20441;-73
2023/01/21 01:20:27;;;;;;;49.13;24.92;;;-0.20;99.90;;;;;;5089560;28;20043;-73
2023/01/21 01:22:52;;;;;;;48.83;25.33;;;-0.10;99.90;;;;;;5093038;28;20394;-73
2023/01/21 01:25:18;;;;;;;50.15;26.15;;;-0.20;99.90;;;;;;5088829;28;20044;-74
2023/01/21 01:27:44;;;;;;;54.72;27.40;;;-0.10;99.90;;;;;;5088374;28;20101;-73
2023/01/21 01:30:10;;;;;;;51.90;26.38;;;-0.10;99.90;;;;;;5105149;28;20055;-74
2023/01/21 01:32:35;;;;;;;54.55;26.77;;;-0.10;99.90;;;;;;5102449;28;20035;-74
2023/01/21 01:35:01;;;;;;;56.75;28.33;;;-0.20;99.90;;;;;;5096145;28;20032;-74
2023/01/21 01:37:27;;;;;;;59.20;27.90;;;-0.20;99.90;;;;;;5086578;28;20479;-74
2023/01/21 01:39:52;;;;;;;59.38;27.83;;;-0.20;99.90;;;;;;5090045;28;20403;-74
2023/01/21 01:42:18;;;;;;;60.15;28.13;;;-0.20;99.90;;;;;;5091687;28;20059;-74
2023/01/21 01:44:55;;;;;;;60.45;27.98;;;-0.20;99.90;;;;;;5094210;28;20043;-74
2023/01/21 01:47:26;;;;;;;56.05;27.52;;;-0.20;99.90;;;;;;5097295;28;20051;-74
2023/01/21 01:49:52;;;;;;;57.72;28.55;;;-0.20;99.90;;;;;;5090739;28;20048;-74
2023/01/21 01:52:20;;;;;;;58.42;29.02;;;-0.20;99.90;;;;;;5087583;28;20046;-73
2023/01/21 01:54:51;;;;;;;60.65;28.33;;;-0.10;99.90;;;;;;5096828;28;20043;-74
2023/01/21 01:57:20;;;;;;;62.60;29.42;;;-0.10;99.90;;;;;;5089929;28;20074;-74
2023/01/21 01:59:47;;;;;;;66.32;29.52;;;-0.10;99.90;;;;;;5090138;28;20075;-74
2023/01/21 02:02:17;;;;;;;66.43;31.05;;;-0.10;99.90;;;;;;5091428;28;20479;-73
2023/01/21 02:04:58;;;;;;;68.57;31.92;;;-0.10;99.90;;;;;;5098729;28;20440;-74
2023/01/21 02:07:27;;;;;;;66.38;29.85;;;-0.20;99.90;;;;;;5088015;28;20569;-74
2023/01/21 02:09:53;;;;;;;60.42;28.83;;;-0.20;99.90;;;;;;5087967;28;20036;-74
2023/01/21 02:12:20;;;;;;;65.30;30.10;;;-0.10;99.90;;;;;;5087213;28;20048;-73
2023/01/21 02:14:46;;;;;;;65.13;30.98;;;-0.10;99.90;;;;;;5092143;28;20028;-73
2023/01/21 02:17:26;;;;;;;77.22;32.13;;;-0.10;99.90;;;;;;5093017;28;20118;-74
2023/01/21 02:20:13;;;;;;;66.78;29.70;;;-0.10;99.90;;;;;;5088608;28;20052;-74
2023/01/21 02:22:41;;;;;;;;;;;-0.20;99.90;;;;;;5091115;28;20043;-73
2023/01/21 02:25:39;;;;;;;65.65;28.17;;;-0.20;99.90;;;;;;5092260;28;19916;-74
2023/01/21 02:28:23;;;;;;;73.65;27.75;;;-0.20;99.90;;;;;;5085656;28;20048;-74
2023/01/21 02:31:26;;;;;;;68.85;30.80;;;-0.20;99.90;;;;;;5082564;28;20401;-74
2023/01/21 02:34:12;;;;;;;73.68;28.52;;;-0.20;99.90;;;;;;5086450;28;20368;-74
2023/01/21 02:36:44;;;;;;;69.63;28.13;;;-0.20;99.90;;;;;;5088351;28;20072;-74
2023/01/21 02:39:18;;;;;;;79.70;29.45;;;-0.20;99.90;;;;;;5087718;28;20491;-74
2023/01/21 02:42:02;;;;;;;73.78;31.52;;;-0.20;99.90;;;;;;5105214;28;20048;-74
2023/01/21 02:44:32;;;;;;;94.03;28.42;;;-0.20;99.90;;;;;;5086558;28;20380;-74
2023/01/21 02:47:34;;;;;;;64.20;27.90;;;-0.20;99.90;;;;;;5090352;28;20036;-74
2023/01/21 02:50:43;;;;;;;61.22;26.83;;;-0.10;99.90;;;;;;5049842;28;20533;-74
2023/01/21 02:53:28;;;;;;;72.40;28.42;;;-0.10;99.90;;;;;;4972182;28;20100;-74
2023/01/21 02:55:58;;;;;;;85.32;26.83;;;-0.10;99.90;;;;;;5006500;28;20046;-74
2023/01/21 02:58:30;;;;;;;75.35;27.20;;;-0.10;99.90;;;;;;5060141;28;20071;-74
2023/01/21 03:01:37;;;;;;;78.90;26.38;;;-0.10;99.90;;;;;;5085176;28;20048;-74
2023/01/21 03:04:19;;;;;;;95.82;27.70;;;-0.20;99.90;;;;;;5089573;28;20109;-74
2023/01/21 03:06:45;;;;;;;61.63;27.08;;;-0.10;99.90;;;;;;5096002;28;20040;-74
2023/01/21 03:09:21;;;;;;;71.47;28.13;;;-0.10;99.90;;;;;;5093075;28;20428;-74
2023/01/21 03:11:59;;;;;;;74.67;28.07;;;-0.10;99.90;;;;;;5098283;28;20043;-74
2023/01/21 03:17:37;;;;;;;129.90;27.77;;;-0.10;99.90;;;;;;5092881;28;19916;-74
2023/01/21 03:20:13;;;;;;;115.97;28.30;;;-0.10;99.90;;;;;;5090600;28;20063;-74
2023/01/21 03:22:40;;;;;;;123.38;28.70;;;-0.10;99.90;;;;;;5091893;28;20636;-74
2023/01/21 03:25:08;;;;;;;100.65;28.65;;;0.00;99.90;;;;;;5093070;28;20059;-74
2023/01/21 03:27:37;;;;;;;109.38;29.95;;;0.00;99.90;;;;;;5111699;28;20486;-74
2023/01/21 03:30:15;;;;;;;76.50;30.42;;;0.00;99.90;;;;;;5107948;28;20072;-74
2023/01/21 03:32:46;;;;;;;60.97;28.23;;;0.00;99.90;;;;;;5109665;28;20043;-74
2023/01/21 03:35:35;;;;;;;77.97;31.13;;;0.00;99.90;;;;;;5093673;28;20432;-74
2023/01/21 03:38:30;;;;;;;84.55;29.70;;;0.00;99.90;;;;;;5091896;28;20166;-74
2023/01/21 03:41:12;;;;;;;98.30;29.17;;;0.10;99.90;;;;;;5097899;28;20070;-74
2023/01/21 03:43:38;;;;;;;80.80;30.85;;;0.00;99.90;;;;;;5111402;28;20823;-74
2023/01/21 03:46:32;;;;;;;74.13;31.60;;;0.00;99.90;;;;;;5092308;28;20051;-74
2023/01/21 03:49:04;;;;;;;69.82;30.25;;;0.10;99.90;;;;;;5102591;28;20043;-74
2023/01/21 03:51:35;;;;;;;62.85;29.73;;;0.10;99.90;;;;;;5093058;28;20067;-74
2023/01/21 03:54:01;;;;;;;64.88;30.40;;;0.20;99.90;;;;;;5091365;28;20402;-74
2023/01/21 03:56:27;;;;;;;61.42;29.55;;;0.20;99.90;;;;;;5091669;28;20040;-74
2023/01/21 03:58:53;;;;;;;64.60;27.90;;;0.20;99.90;;;;;;5090082;28;20040;-74
2023/01/21 04:01:19;;;;;;;59.30;27.90;;;0.20;99.90;;;;;;5091837;28;20040;-74
2023/01/21 04:03:45;;;;;;;56.80;26.25;;;0.20;99.90;;;;;;5096039;28;20070;-73
2023/01/21 04:06:16;;;;;;;62.42;27.90;;;0.30;99.90;;;;;;5102927;28;20394;-74
2023/01/21 04:08:42;;;;;;;56.72;29.10;;;0.30;99.90;;;;;;5090402;28;20046;-74
2023/01/21 04:11:07;;;;;;;63.50;30.45;;;0.30;99.90;;;;;;5090783;28;20146;-74
2023/01/21 04:13:33;;;;;;;63.05;28.75;;;0.30;99.90;;;;;;5092887;28;20036;-74
2023/01/21 04:15:59;;;;;;;59.55;27.88;;;0.30;99.90;;;;;;5092230;28;20036;-74
2023/01/21 04:18:24;;;;;;;64.47;29.48;;;0.30;99.90;;;;;;5087950;28;20481;-74
2023/01/21 04:20:50;;;;;;;57.88;28.35;;;0.30;99.90;;;;;;5091596;28;20047;-74
2023/01/21 04:23:15;;;;;;;63.05;28.77;;;0.30;99.90;;;;;;5090530;28;20128;-74
2023/01/21 04:25:41;;;;;;;57.20;28.40;;;0.30;99.90;;;;;;5091124;28;20082;-75
2023/01/21 04:28:07;;;;;;;59.83;28.23;;;0.30;99.90;;;;;;5090122;28;20101;-75
2023/01/21 04:30:32;;;;;;;63.83;29.45;;;0.30;99.90;;;;;;5099996;28;20044;-74
2023/01/21 04:32:58;;;;;;;58.17;28.15;;;0.20;99.90;;;;;;5089078;28;20044;-74
2023/01/21 04:35:24;;;;;;;61.45;29.60;;;0.20;99.90;;;;;;5089774;28;20036;-74
2023/01/21 04:37:49;;;;;;;61.28;27.90;;;0.20;99.90;;;;;;5092992;28;20485;-74
2023/01/21 04:40:15;;;;;;;60.42;28.30;;;0.20;99.90;;;;;;5088449;28;20040;-74
2023/01/21 04:42:41;;;;;;;65.03;27.98;;;0.20;99.90;;;;;;5091665;28;20052;-74
2023/01/21 04:45:08;;;;;;;58.55;27.42;;;0.30;99.90;;;;;;5089267;28;20044;-74
2023/01/21 04:47:33;;;;;;;63.30;28.98;;;0.30;99.90;;;;;;5090141;28;20151;-74
2023/01/21 04:49:59;;;;;;;60.85;27.67;;;0.20;99.90;;;;;;5100105;28;20123;-73
2023/01/21 04:52:24;;;;;;;52.40;27.02;;;0.20;99.90;;;;;;5092548;28;20044;-73
2023/01/21 04:54:50;;;;;;;53.80;26.63;;;0.20;99.90;;;;;;5090492;28;20429;-73
2023/01/21 04:57:16;;;;;;;59.90;28.95;;;0.20;99.90;;;;;;5095084;28;20490;-73
2023/01/21 04:59:41;;;;;;;54.45;26.77;;;0.20;99.90;;;;;;5097206;28;20093;-73
2023/01/21 05:02:07;;;;;;;61.00;27.38;;;0.10;99.90;;;;;;5089065;28;20063;-73
2023/01/21 05:04:33;;;;;;;59.50;29.42;;;0.10;99.90;;;;;;5091349;28;20166;-73
2023/01/21 05:06:58;;;;;;;53.35;26.45;;;0.10;99.90;;;;;;5091686;28;20051;-73
2023/01/21 05:09:24;;;;;;;60.42;28.42;;;0.10;99.90;;;;;;5089781;28;20440;-73
2023/01/21 05:11:50;;;;;;;56.33;26.27;;;0.10;99.90;;;;;;5099145;28;20148;-73
2023/01/21 05:14:15;;;;;;;54.80;26.77;;;0.10;99.90;;;;;;5111208;28;20044;-73
2023/01/21 05:16:41;;;;;;;58.22;27.35;;;0.10;99.90;;;;;;5090952;28;20694;-73
2023/01/21 05:19:07;;;;;;;56.45;28.25;;;0.10;99.90;;;;;;5091779;28;20091;-73
2023/01/21 05:21:32;;;;;;;57.95;29.27;;;0.10;99.90;;;;;;5091773;28;20040;-73
2023/01/21 05:23:58;;;;;;;59.10;27.52;;;0.20;99.90;;;;;;5090359;28;20059;-73
2023/01/21 05:26:24;;;;;;;62.85;27.95;;;0.20;99.90;;;;;;5091948;28;20047;-73
2023/01/21 05:28:49;;;;;;;63.08;27.50;;;0.20;99.90;;;;;;5104628;28;20036;-73
2023/01/21 05:31:15;;;;;;;56.83;27.02;;;0.20;99.90;;;;;;5109162;28;20104;-73
2023/01/21 05:33:42;;;;;;;62.05;28.10;;;0.30;99.90;;;;;;5093296;28;20044;-73
2023/01/21 05:36:08;;;;;;;;;;;0.30;99.90;;;;;;5091322;28;20036;-73
2023/01/21 05:38:34;;;;;;;54.92;24.48;;;0.30;99.90;;;;;;5096257;28;20359;-73
2023/01/21 05:41:01;;;;;;;56.00;26.23;;;0.30;99.90;;;;;;5090441;28;21247;-73
2023/01/21 05:43:28;;;;;;;52.42;26.48;;;0.30;99.90;;;;;;5075356;28;20521;-72
2023/01/21 05:45:54;;;;;;;57.90;27.20;;;0.30;99.90;;;;;;5087493;28;20036;-72
2023/01/21 05:48:20;;;;;;;58.05;28.15;;;0.30;99.90;;;;;;5090687;28;20165;-73
2023/01/21 05:50:47;;;;;;;60.58;28.38;;;0.30;99.90;;;;;;5087280;28;20070;-73
2023/01/21 05:53:13;;;;;;;59.47;29.63;;;0.30;99.90;;;;;;5091767;28;20134;-72
2023/01/21 05:55:39;;;;;;;61.25;29.23;;;0.30;99.90;;;;;;5087362;28;20040;-73
2023/01/21 05:58:04;;;;;;;60.05;29.13;;;0.30;99.90;;;;;;5090623;28;20122;-73
2023/01/21 06:00:30;;;;;;;59.10;27.92;;;0.30;99.90;;;;;;5092757;28;20135;-73
2023/01/21 06:02:58;;;;;;;57.90;28.67;;;0.30;99.90;;;;;;5090593;28;20044;-73
2023/01/21 06:05:24;;;;;;;61.53;28.13;;;0.40;99.90;;;;;;5088512;28;20032;-73
2023/01/21 06:07:50;;;;;;;55.92;28.42;;;0.40;99.90;;;;;;5090647;28;20043;-73
2023/01/21 06:10:15;;;;;;;54.85;27.27;;;0.40;99.90;;;;;;5092912;28;20108;-73
2023/01/21 06:12:41;;;;;;;60.72;28.77;;;0.40;99.90;;;;;;5100278;28;20044;-73
2023/01/21 06:15:07;;;;;;;53.47;27.10;;;0.40;99.90;;;;;;5088445;28;20059;-73
2023/01/21 06:17:33;;;;;;;60.75;28.08;;;0.50;99.90;;;;;;5108339;28;20051;-72
2023/01/21 06:19:58;;;;;;;60.10;28.65;;;0.50;99.90;;;;;;5089903;28;20064;-73
2023/01/21 06:22:24;;;;;;;55.53;27.73;;;0.50;99.90;;;;;;5102070;28;20038;-73
2023/01/21 06:24:49;;;;;;;57.03;28.98;;;0.50;99.90;;;;;;5095471;28;20513;-73
2023/01/21 06:27:15;;;;;;;56.35;27.17;;;0.50;99.90;;;;;;5089354;28;20068;-73
2023/01/21 06:29:40;;;;;;;60.78;28.67;;;0.60;99.90;;;;;;5102467;28;20044;-73
2023/01/21 06:32:06;;;;;;;53.03;27.23;;;0.60;99.90;;;;;;5088531;28;20121;-72
2023/01/21 06:34:32;;;;;;;54.55;26.77;;;0.50;99.90;;;;;;5089648;28;20119;-73
2023/01/21 06:36:57;;;;;;;55.60;28.52;;;0.50;99.90;;;;;;5090753;28;20471;-74
2023/01/21 06:39:26;;;;;;;62.50;31.42;;;0.60;99.90;;;;;;5089802;28;20197;-74
2023/01/21 06:41:52;;;;;;;59.78;29.40;;;0.60;99.90;;;;;;5091701;28;20473;-73
2023/01/21 06:44:17;;;;;;;57.80;29.42;;;0.60;99.90;;;;;;5095116;28;20048;-74
2023/01/21 06:46:43;;;;;;;58.72;30.23;;;0.60;99.90;;;;;;5097189;28;20092;-74
2023/01/21 06:49:08;;;;;;;58.42;28.40;;;0.60;99.90;;;;;;5092486;28;20039;-74
2023/01/21 06:51:34;;;;;;;58.42;28.33;;;0.60;99.90;;;;;;5097035;28;20176;-74
2023/01/21 06:54:00;;;;;;;56.65;29.17;;;0.70;99.90;;;;;;5099742;28;20056;-74
2023/01/21 06:56:25;;;;;;;59.58;28.13;;;0.70;99.90;;;;;;5090447;28;20044;-74
2023/01/21 06:58:51;;;;;;;58.22;29.08;;;0.70;99.90;;;;;;5092707;28;20044;-73
2023/01/21 07:01:16;;;;;;;58.08;27.15;;;0.80;99.90;;;;;;5084008;28;20102;-73
2023/01/21 07:03:43;;;;;;;59.67;28.38;;;0.80;99.90;;;;;;5093953;28;20040;-73
2023/01/21 07:06:09;;;;;;;58.88;29.05;;;0.80;99.90;;;;;;5110587;28;20052;-74
2023/01/21 07:08:34;;;;;;;59.22;29.52;;;0.70;99.90;;;;;;5106511;28;20109;-73
2023/01/21 07:11:00;;;;;;;60.78;29.45;;;0.70;99.90;;;;;;5094669;28;20051;-73
2023/01/21 07:13:26;;;;;;;61.28;30.45;;;0.70;99.90;;;;;;5112659;28;20048;-73
2023/01/21 07:15:52;;;;;;;62.83;30.13;;;0.80;99.90;;;;;;5094047;28;20036;-73
2023/01/21 07:18:17;;;;;;;56.30;28.30;;;0.60;99.90;;;;;;5097000;28;20387;-74
2023/01/21 07:20:43;;;;;;;62.65;29.00;;;0.60;99.90;;;;;;5093317;28;20043;-73
2023/01/21 07:23:09;;;;;;;57.75;27.02;;;0.60;99.90;;;;;;5108629;28;20487;-72
2023/01/21 07:25:36;;;;;;;59.75;28.65;;;0.60;99.90;;;;;;5113353;28;20047;-74
2023/01/21 07:28:02;;;;;;;57.38;27.85;;;0.60;99.90;;;;;;5107603;28;20127;-73
2023/01/21 07:30:27;;;;;;;59.17;28.15;;;0.70;99.90;;;;;;5093428;28;20151;-73
2023/01/21 07:32:53;;;;;;;57.17;27.92;;;0.70;99.90;;;;;;5094722;28;20036;-73
2023/01/21 07:35:18;;;;;;;55.55;28.10;;;0.70;99.90;;;;;;5114143;28;20606;-73
2023/01/21 07:37:44;;;;;;;59.90;29.10;;;0.70;99.90;;;;;;5113567;28;20127;-74
2023/01/21 07:40:10;;;;;;;54.30;27.08;;;0.80;99.90;;;;;;5113556;28;20082;-72
2023/01/21 07:42:36;;;;;;;59.17;28.67;;;0.80;99.90;;;;;;5100804;28;20027;-73
2023/01/21 07:45:02;;;;;;;57.63;30.13;;;0.80;99.90;;;;;;5106610;28;20428;-73
2023/01/21 07:47:28;;;;;;;55.15;28.05;;;0.80;99.90;;;;;;5100713;28;20097;-73
2023/01/21 07:49:54;;;;;;;54.13;26.70;;;0.80;99.90;;;;;;5092159;28;20048;-73
2023/01/21 07:52:20;;;;;;;53.40;27.33;;;0.80;99.90;;;;;;5091194;28;20452;-73
2023/01/21 07:54:46;;;;;;;57.33;26.33;;;0.80;99.90;;;;;;5103043;28;20475;-73
2023/01/21 07:57:13;;;;;;;57.42;28.90;;;0.80;99.90;;;;;;5094178;28;20051;-74
2023/01/21 07:59:39;;;;;;;56.95;26.30;;;0.80;99.90;;;;;;5092780;28;20051;-73
2023/01/21 08:02:04;;;;;;;60.83;28.75;;;0.80;99.90;;;;;;5083015;28;20036;-73
2023/01/21 08:04:31;;;;;;;55.88;27.42;;;0.80;99.90;;;;;;5092500;28;20067;-73
2023/01/21 08:06:57;;;;;;;56.42;28.58;;;0.80;99.90;;;;;;5095695;28;20097;-72
2023/01/21 08:09:24;;;;;;;53.65;27.65;;;0.80;99.90;;;;;;5097494;28;20121;-72
2023/01/21 08:11:50;;;;;;;49.10;26.35;;;0.80;99.90;;;;;;5091236;28;20055;-72
2023/01/21 08:14:16;;;;;;;53.45;26.85;;;0.80;99.90;;;;;;5089859;28;20383;-72
2023/01/21 08:16:42;;;;;;;51.03;27.83;;;0.80;99.90;;;;;;5088770;28;20051;-72
2023/01/21 08:19:09;;;;;;;53.95;27.45;;;0.80;99.90;;;;;;5086385;28;20067;-72
2023/01/21 08:21:35;;;;;;;57.65;26.90;;;0.80;99.90;;;;;;5081844;28;20043;-72
2023/01/21 08:24:01;;;;;;;55.95;26.90;;;0.90;99.90;;;;;;5095597;28;20039;-72
2023/01/21 08:26:27;;;;;;;56.58;27.33;;;0.90;99.90;;;;;;5088627;28;20044;-73
2023/01/21 08:28:54;;;;;;;52.97;26.08;;;0.90;99.90;;;;;;5096061;28;20036;-72
2023/01/21 08:31:20;;;;;;;51.92;25.60;;;0.90;99.90;;;;;;5090257;28;20044;-74
2023/01/21 08:33:46;;;;;;;53.03;28.02;;;0.90;99.90;;;;;;5089302;28;20044;-74
2023/01/21 08:36:12;;;;;;;54.95;27.52;;;0.90;99.90;;;;;;5089310;28;20039;-74
2023/01/21 08:38:39;;;;;;;47.85;25.10;;;0.90;99.90;;;;;;5076353;28;20048;-73
2023/01/21 08:41:06;;;;;;;47.40;23.70;;;0.90;99.90;;;;;;5087458;28;20040;-74
2023/01/21 08:43:31;;;;;;;49.60;25.42;;;0.90;99.90;;;;;;5088980;28;20047;-72
2023/01/21 08:46:00;;;;;;;47.78;25.05;;;0.90;99.90;;;;;;5089765;28;20052;-72
2023/01/21 08:48:29;;;;;;;49.47;25.48;;;1.00;99.90;;;;;;5089554;28;20040;-71
2023/01/21 08:50:59;;;;;;;48.42;24.55;;;1.00;99.90;;;;;;5095977;28;20036;-73
2023/01/21 08:53:25;;;;;;;48.83;25.23;;;1.00;99.90;;;;;;5091504;28;20055;-72
2023/01/21 08:55:51;;;;;;;47.50;24.63;;;1.00;99.90;;;;;;5102517;28;20040;-73
2023/01/21 08:58:17;;;;;;;51.47;25.73;;;1.00;99.90;;;;;;5089418;28;20083;-72
2023/01/21 09:00:43;;;;;;;47.95;25.65;;;1.00;99.90;;;;;;5085690;28;20044;-72
2023/01/21 09:03:09;;;;;;;47.83;25.52;;;1.00;99.90;;;;;;5081431;28;20513;-73
2023/01/21 09:05:35;;;;;;;47.20;25.05;;;1.10;99.90;;;;;;5088382;28;20152;-72
2023/01/21 09:08:01;;;;;;;54.00;27.77;;;1.10;99.90;;;;;;5093962;28;20048;-73
2023/01/21 09:13:11;;;;;;;49.15;25.90;;;1.10;99.90;;;;;;5099135;28;20044;-72
2023/01/21 09:15:41;;;;;;;47.90;25.88;;;1.10;99.90;;;;;;5088175;28;20051;-72
2023/01/21 09:18:07;;;;;;;50.80;27.67;;;1.20;99.90;;;;;;5090297;28;20517;-71
2023/01/21 09:20:38;;;;;;;52.13;27.00;;;1.20;99.90;;;;;;5101326;28;20138;-73
2023/01/21 09:23:23;;;;;;;50.15;27.67;;;1.20;99.90;;;;;;5101366;28;20052;-72
2023/01/21 09:26:02;;;;;;;51.17;26.33;;;1.20;99.90;;;;;;5100396;28;20111;-78
2023/01/21 09:28:29;;;;;;;52.00;27.38;;;1.20;99.90;;;;;;5094285;28;20127;-77
2023/01/21 09:31:04;;;;;;;51.90;26.88;;;1.20;99.90;;;;;;5097837;28;20039;-75
2023/01/21 09:33:31;;;;;;;49.08;25.88;;;1.20;99.90;;;;;;5108494;28;20119;-76
2023/01/21 09:36:00;;;;;;;49.25;25.13;;;1.20;99.90;;;;;;5110712;27;20043;-77
2023/01/21 09:38:27;;;;;;;53.30;27.15;;;1.20;99.90;;;;;;5096359;28;20044;-77
2023/01/21 09:40:53;;;;;;;49.72;27.08;;;1.20;99.90;;;;;;5106840;28;20050;-79
2023/01/21 09:43:34;;;;;;;50.70;26.85;;;1.20;99.90;;;;;;5107517;28;20044;-78
2023/01/21 09:46:05;;;;;;;53.50;25.75;;;1.20;99.90;;;;;;5112259;28;20467;-78
2023/01/21 09:48:39;;;;;;;53.35;27.08;;;1.30;99.90;;;;;;5092563;28;20105;-76
2023/01/21 09:51:18;;;;;;;47.85;25.90;;;1.30;99.90;;;;;;5096062;28;20079;-75
2023/01/21 09:53:49;;;;;;;49.25;25.63;;;1.30;99.90;;;;;;5109991;28;20122;-78
2023/01/21 09:56:30;;;;;;;49.33;27.65;;;1.30;99.90;;;;;;5099004;28;20436;-81
2023/01/21 09:59:21;;;;;;;46.85;24.40;;;1.30;99.90;;;;;;5093483;28;20043;-78
2023/01/21 10:01:48;;;;;;;46.47;24.65;;;1.30;99.90;;;;;;5090133;28;20054;-75
2023/01/21 10:04:43;;;;;;;;;;;1.30;99.90;;;;;;5089615;28;20047;-75
2023/01/21 10:07:44;;;;;;;47.30;23.45;;;1.40;99.90;;;;;;5014972;28;19940;-75
2023/01/21 10:10:25;;;;;;;46.13;23.05;;;1.40;99.90;;;;;;5096407;28;20534;-78
2023/01/21 10:13:08;;;;;;;49.58;25.60;;;1.40;99.90;;;;;;5111394;28;20569;-76
2023/01/21 10:15:42;;;;;;;49.90;24.25;;;1.50;99.90;;;;;;5109482;28;20490;-77
2023/01/21 10:18:17;;;;;;;46.75;24.60;;;1.50;99.90;;;;;;5101455;28;20050;-75
2023/01/21 10:21:05;;;;;;;43.85;23.58;;;1.50;99.90;;;;;;5090907;28;20040;-76
2023/01/21 10:23:37;;;;;;;46.85;25.15;;;1.60;99.90;;;;;;5099873;28;20089;-77
2023/01/21 10:26:07;;;;;;;45.90;24.90;;;1.60;99.90;;;;;;5089321;28;20075;-75
2023/01/21 10:28:37;;;;;;;44.78;24.73;;;1.70;99.90;;;;;;5105733;28;20412;-77
2023/01/21 10:31:20;;;;;;;51.15;26.25;;;1.70;99.90;;;;;;5110522;28;20040;-77
2023/01/21 10:33:45;;;;;;;49.08;25.45;;;1.80;99.90;;;;;;5094379;28;20040;-77
2023/01/21 10:36:21;;;;;;;45.20;25.27;;;1.80;99.90;;;;;;5102553;28;20390;-77
2023/01/21 10:38:58;;;;;;;49.08;26.70;;;1.80;99.90;;;;;;5096958;28;20843;-76
2023/01/21 10:41:52;;;;;;;50.53;26.77;;;1.90;99.90;;;;;;5087596;28;20072;-78
2023/01/21 10:44:31;;;;;;;45.70;25.52;;;1.90;99.90;;;;;;5094462;28;20040;-73
2023/01/21 10:47:20;;;;;;;53.83;27.20;;;1.90;99.90;;;;;;5092017;28;20111;-76
2023/01/21 10:50:01;;;;;;;42.65;25.38;;;1.90;99.90;;;;;;5084377;28;20063;-79
2023/01/21 10:52:51;;;;;;;50.30;25.83;;;1.90;99.90;;;;;;5095682;28;20040;-72
2023/01/21 10:55:38;;;;;;;50.30;28.13;;;1.90;99.90;;;;;;5089831;28;20052;-72
2023/01/21 10:58:20;;;;;;;49.72;27.20;;;2.00;99.90;;;;;;5089530;28;20044;-72
2023/01/21 11:00:49;;;;;;;46.53;27.42;;;2.00;99.90;;;;;;5098502;28;20042;-72
2023/01/21 11:03:30;;;;;;;45.78;26.45;;;2.00;99.90;;;;;;5100365;28;20517;-78
2023/01/21 11:05:59;;;;;;;46.85;27.40;;;2.00;99.90;;;;;;5084932;28;20068;-77
2023/01/21 11:08:26;;;;;;;49.03;27.05;;;2.00;99.90;;;;;;5091994;28;20434;-76
2023/01/21 11:10:56;;;;;;;51.10;29.23;;;2.10;99.90;;;;;;5090380;28;20028;-75
2023/01/21 11:13:22;;;;;;;48.58;27.73;;;2.10;99.90;;;;;;5082881;28;20040;-76
2023/01/21 11:15:54;;;;;;;47.10;26.63;;;2.10;99.90;;;;;;5088535;28;20048;-78
2023/01/21 11:18:36;;;;;;;49.78;28.55;;;2.20;99.90;;;;;;5091605;28;20078;-78
2023/01/21 11:21:23;;;;;;;49.35;29.10;;;2.20;99.90;;;;;;5108906;28;20447;-77
2023/01/21 11:24:12;;;;;;;;;;;2.20;99.90;;;;;;5112618;28;20491;-77
2023/01/21 11:26:52;;;;;;;47.35;27.85;;;2.20;99.90;;;;;;5099728;28;19920;-80
2023/01/21 11:29:20;;;;;;;50.17;28.58;;;2.20;99.90;;;;;;5101076;28;20040;-78
2023/01/21 11:32:04;;;;;;;51.22;28.40;;;2.30;99.90;;;;;;5108412;28;20059;-77
2023/01/21 11:34:30;;;;;;;51.17;29.45;;;2.30;99.90;;;;;;5101663;27;20051;-79
2023/01/21 11:37:05;;;;;;;51.55;29.98;;;2.40;99.90;;;;;;5095050;28;20044;-77
2023/01/21 11:39:33;;;;;;;51.47;29.70;;;2.40;99.90;;;;;;5093183;28;20058;-76
2023/01/21 11:42:12;;;;;;;53.33;30.83;;;2.50;99.90;;;;;;5093589;28;20111;-77
2023/01/21 11:44:57;;;;;;;53.90;29.35;;;2.50;99.90;;;;;;5109784;28;20093;-73
2023/01/21 11:47:33;;;;;;;50.95;29.95;;;2.40;99.90;;;;;;5095720;28;20505;-75
2023/01/21 11:50:21;;;;;;;53.92;29.83;;;2.40;99.90;;;;;;5096113;28;20051;-76
2023/01/21 11:53:13;;;;;;;51.20;29.73;;;2.50;99.90;;;;;;5105329;28;20054;-76
2023/01/21 11:55:46;;;;;;;51.55;30.42;;;2.50;99.90;;;;;;5106000;28;20039;-77
2023/01/21 11:58:34;;;;;;;51.13;29.70;;;2.50;99.90;;;;;;5108753;28;20047;-77
2023/01/21 12:01:03;;;;;;;51.20;29.52;;;2.50;99.90;;;;;;5092451;28;20051;-79
2023/01/21 12:03:34;;;;;;;51.58;31.45;;;2.60;99.90;;;;;;5103792;28;20399;-75
2023/01/21 12:06:01;;;;;;;48.78;30.48;;;2.60;99.90;;;;;;5093905;28;20044;-78
2023/01/21 12:08:32;;;;;;;50.00;29.77;;;2.60;99.90;;;;;;5099730;28;20028;-78
2023/01/21 12:11:03;;;;;;;50.35;30.58;;;2.70;99.90;;;;;;5091740;28;20047;-71
2023/01/21 12:13:56;;;;;;;49.10;30.58;;;2.70;99.90;;;;;;5089321;28;20166;-73
2023/01/21 12:16:36;;;;;;;47.60;28.25;;;2.70;99.90;;;;;;5088204;28;20040;-74
2023/01/21 12:19:20;;;;;;;46.92;29.73;;;2.70;99.90;;;;;;5090655;28;20056;-74
2023/01/21 12:22:05;;;;;;;48.58;29.92;;;2.70;99.90;;;;;;5092834;28;20083;-73
2023/01/21 12:24:36;;;;;;;45.38;29.02;;;2.70;99.90;;;;;;5098258;28;20040;-75
2023/01/21 12:27:20;;;;;;;51.38;29.60;;;2.70;99.90;;;;;;5094267;28;20062;-74
2023/01/21 12:30:07;;;;;;;45.53;29.45;;;2.70;99.90;;;;;;5090137;28;20478;-73
2023/01/21 12:32:39;;;;;;;50.33;31.08;;;2.80;99.90;;;;;;5099572;28;20048;-71
2023/01/21 12:35:25;;;;;;;51.20;30.60;;;2.80;99.90;;;;;;5088347;28;20079;-72
2023/01/21 12:37:57;;;;;;;46.83;29.13;;;2.80;99.90;;;;;;5080834;28;20051;-75
2023/01/21 12:40:32;;;;;;;49.20;31.13;;;2.80;99.90;;;;;;5088199;28;20074;-76
2023/01/21 12:43:13;;;;;;;48.90;30.67;;;2.90;99.90;;;;;;5103562;28;20674;-75
2023/01/21 12:45:50;;;;;;;49.20;30.92;;;2.90;99.90;;;;;;5096858;28;20100;-74
2023/01/21 12:48:38;;;;;;;43.22;28.90;;;2.90;99.90;;;;;;5094131;28;20056;-74
2023/01/21 12:51:08;;;;;;;44.53;28.13;;;3.00;99.90;;;;;;5090468;28;20081;-74
2023/01/21 12:53:40;;;;;;;48.50;29.80;;;3.00;99.90;;;;;;5091449;28;20048;-75
2023/01/21 12:56:38;;;;;;;47.17;30.65;;;3.00;99.90;;;;;;5099543;28;20044;-75
2023/01/21 12:59:17;;;;;;;42.03;27.35;;;3.00;99.90;;;;;;5090169;28;20425;-74